CheckWX is a tool to help pilots better visualize weather data.  It is not intended as a substitute for an official pre-flight weather briefing.

03:15:48 UTC

KBEH METAR
Southwest Michigan Regional Airport
Benton Harbor, Michigan, USA
Current

23 mins ago

KBEH 020253Z AUTO 30003KT 6SM BR OVC002 01/00 A3013 RMK AO2 SLP206 T00110000 51011
Observed
Apr-2 @ 02:53 UTC
Wind
  • 300° at 3 KTS
Visibility
6 SM
Flight Rules
LIFR
Conditions
Mist
Cloud Levels
  • Overcast at 200' AGL
Temperature
C / 34°F
Dewpoint
C / 32°F
Humidity
93%
Altimeter
30.13" Hg
Pressure
1020.32 hPa
Previous

33 mins ago

KBEH 020243Z AUTO 29003KT 7SM OVC002 03/02 A3013 RMK AO2 T00280017
Observed
Apr-2 @ 02:43 UTC
Wind
  • 290° at 3 KTS
Visibility
7 SM
Flight Rules
LIFR
Cloud Levels
  • Overcast at 200' AGL
Temperature
C / 37°F
Dewpoint
C / 36°F
Humidity
93%
Altimeter
30.13" Hg
Pressure
1020.32 hPa
Previous

1 hour ago

KBEH 020213Z AUTO 00000KT 8SM BKN003 03/02 A3012 RMK AO2 T00280017
Observed
Apr-2 @ 02:13 UTC
Visibility
8 SM
Flight Rules
LIFR
Cloud Levels
  • Broken at 300' AGL
Temperature
C / 37°F
Dewpoint
C / 36°F
Humidity
93%
Altimeter
30.12" Hg
Pressure
1020.02 hPa